< < Back
Terminal Aerodrome Forecast


Current Version              Previous Versions:   1  2  3  4  5  6  7  8  9  

Terminal Aerodrome Forecast

879
FTUS44 KHUN 042245 AAA
TAFHSV
TAF AMD
KHSV 042245Z 0423/0518 17010KT P6SM VCSH OVC050
      TEMPO 0500/0502 4SM SHRA BR OVC020
     FM050900 19004KT 4SM BR VCSH OVC015
     FM051500 19005KT P6SM OVC015=

Latest METAR

002
SAUS80 KWBC 060100 RRB
MTRHSV
METAR KHSV 060053Z 22004KT 10SM SCT049 BKN250 26/22 A3008 RMK AO2 SLP179
T02610217 $


USA.gov is the U.S. government's official web portal to all federal, state and local government web resources and services.